createdAt,value
2017-04-09T00:00:57.940Z,1020.17
2017-04-09T00:02:08.984Z,1020.14
2017-04-09T00:03:19.995Z,1020.16
2017-04-09T00:04:31.001Z,1020.12
2017-04-09T00:05:42.193Z,1020.15
2017-04-09T00:06:53.391Z,1020.1
2017-04-09T00:08:04.443Z,1020.11
2017-04-09T00:09:15.450Z,1020.07
2017-04-09T00:10:26.454Z,1020.09
2017-04-09T00:11:37.457Z,1020.11
2017-04-09T00:12:48.451Z,1020.08
2017-04-09T00:13:59.704Z,1020.04
2017-04-09T00:15:10.699Z,1020.04
2017-04-09T00:16:21.693Z,1020.03
2017-04-09T00:17:32.693Z,1020.01
2017-04-09T00:18:43.694Z,1020.06
2017-04-09T00:19:54.942Z,1020.06
2017-04-09T00:21:05.945Z,1020.05
2017-04-09T00:22:16.959Z,1020
2017-04-09T00:23:27.958Z,1020.01
2017-04-09T00:24:38.951Z,1020.02
2017-04-09T00:25:50.412Z,1020.02
2017-04-09T00:27:01.409Z,1020.02
2017-04-09T00:28:12.415Z,1020.03
2017-04-09T00:29:23.412Z,1020
2017-04-09T00:30:34.417Z,1020.03
2017-04-09T00:31:45.673Z,1020.02
2017-04-09T00:32:56.674Z,1020.05
2017-04-09T00:34:07.679Z,1020.05
2017-04-09T00:35:18.899Z,1020.05
2017-04-09T00:36:29.901Z,1020
2017-04-09T00:37:41.154Z,1019.98
2017-04-09T00:38:52.158Z,1020.01
2017-04-09T00:40:03.173Z,1019.98
2017-04-09T00:41:14.378Z,1020.04
2017-04-09T00:42:25.784Z,1020.03
2017-04-09T00:43:37.036Z,1020.03
2017-04-09T00:44:48.030Z,1020
2017-04-09T00:45:59.033Z,1020
2017-04-09T00:47:10.024Z,1019.96
2017-04-09T00:48:21.436Z,1020
2017-04-09T00:49:32.478Z,1019.93
2017-04-09T00:50:43.474Z,1019.96
2017-04-09T00:51:54.682Z,1019.97
2017-04-09T00:53:05.669Z,1019.96
2017-04-09T00:54:16.668Z,1019.99
2017-04-09T00:55:27.715Z,1019.99
2017-04-09T00:56:38.924Z,1019.99
2017-04-09T00:57:49.920Z,1019.96
2017-04-09T00:59:00.923Z,1019.98
2017-04-09T01:00:11.929Z,1019.96
2017-04-09T01:01:23.225Z,1019.95
2017-04-09T01:02:34.420Z,1019.98
2017-04-09T01:03:45.426Z,1019.95
2017-04-09T01:04:56.429Z,1019.91
2017-04-09T01:06:07.430Z,1019.95
2017-04-09T01:07:18.469Z,1019.96
2017-04-09T01:08:29.472Z,1019.91
2017-04-09T01:09:40.682Z,1019.92
2017-04-09T01:10:51.682Z,1019.93
2017-04-09T01:12:02.681Z,1019.92
2017-04-09T01:13:13.947Z,1019.93
2017-04-09T01:14:24.946Z,1019.92
2017-04-09T01:15:36.140Z,1019.9
2017-04-09T01:16:47.338Z,1019.91
2017-04-09T01:17:58.342Z,1019.91
2017-04-09T01:19:09.595Z,1019.89
2017-04-09T01:20:20.797Z,1019.88
2017-04-09T01:21:31.797Z,1019.89
2017-04-09T01:22:42.798Z,1019.95
2017-04-09T01:23:53.786Z,1019.93
2017-04-09T01:25:04.835Z,1019.87
2017-04-09T01:26:15.843Z,1019.88
2017-04-09T01:27:26.840Z,1019.88
2017-04-09T01:28:38.229Z,1019.85
2017-04-09T01:29:49.228Z,1019.86
2017-04-09T01:31:00.267Z,1019.86
2017-04-09T01:32:11.285Z,1019.87
2017-04-09T01:33:22.481Z,1019.85
2017-04-09T01:34:33.872Z,1019.79
2017-04-09T01:35:44.868Z,1019.78
2017-04-09T01:36:56.320Z,1019.81
2017-04-09T01:38:07.532Z,1019.81
2017-04-09T01:39:18.528Z,1019.8
2017-04-09T01:40:29.515Z,1019.77
2017-04-09T01:41:40.709Z,1019.76
2017-04-09T01:42:51.964Z,1019.77
2017-04-09T01:44:02.962Z,1019.76
2017-04-09T01:45:13.971Z,1019.75
2017-04-09T01:46:24.975Z,1019.74
2017-04-09T01:47:35.964Z,1019.72
2017-04-09T01:48:47.226Z,1019.75
2017-04-09T01:49:58.227Z,1019.73
2017-04-09T01:51:09.430Z,1019.71
2017-04-09T01:52:20.428Z,1019.71
2017-04-09T01:53:31.637Z,1019.69
2017-04-09T01:54:42.685Z,1019.73
2017-04-09T01:55:53.677Z,1019.76
2017-04-09T01:57:04.678Z,1019.76
2017-04-09T01:58:15.886Z,1019.75
2017-04-09T01:59:26.893Z,1019.75
2017-04-09T02:00:37.897Z,1019.77
2017-04-09T02:01:48.904Z,1019.76
2017-04-09T02:02:59.911Z,1019.78
2017-04-09T02:04:11.104Z,1019.79
2017-04-09T02:05:22.147Z,1019.79
2017-04-09T02:06:33.146Z,1019.79
2017-04-09T02:07:44.145Z,1019.81
2017-04-09T02:08:55.141Z,1019.8
2017-04-09T02:10:06.155Z,1019.78
2017-04-09T02:11:17.208Z,1019.75
2017-04-09T02:12:28.416Z,1019.77
2017-04-09T02:13:39.612Z,1019.74
2017-04-09T02:14:50.611Z,1019.73
2017-04-09T02:16:01.618Z,1019.72
2017-04-09T02:17:12.877Z,1019.7
2017-04-09T02:18:23.868Z,1019.74
2017-04-09T02:19:34.868Z,1019.71
2017-04-09T02:20:45.868Z,1019.69
2017-04-09T02:21:56.872Z,1019.67
2017-04-09T02:23:08.124Z,1019.66
2017-04-09T02:24:19.111Z,1019.67
2017-04-09T02:25:30.299Z,1019.65
2017-04-09T02:26:41.325Z,1019.63
2017-04-09T02:27:52.552Z,1019.62
2017-04-09T02:29:03.809Z,1019.62
2017-04-09T02:30:14.830Z,1019.62
2017-04-09T02:31:25.831Z,1019.61
2017-04-09T02:32:37.028Z,1019.57
2017-04-09T02:33:48.025Z,1019.58
2017-04-09T02:34:59.268Z,1019.59
2017-04-09T02:36:10.255Z,1019.56
2017-04-09T02:37:21.256Z,1019.61
2017-04-09T02:38:32.451Z,1019.58
2017-04-09T02:39:43.450Z,1019.6
2017-04-09T02:40:54.494Z,1019.62
2017-04-09T02:42:05.494Z,1019.56
2017-04-09T02:43:16.690Z,1019.63
2017-04-09T02:44:27.890Z,1019.59
2017-04-09T02:45:38.893Z,1019.58
2017-04-09T02:46:50.142Z,1019.59
2017-04-09T02:48:01.131Z,1019.57
2017-04-09T02:49:12.146Z,1019.51
2017-04-09T02:50:23.568Z,1019.53
2017-04-09T02:51:34.756Z,1019.54
2017-04-09T02:52:45.794Z,1019.49
2017-04-09T02:53:56.791Z,1019.49
2017-04-09T02:55:07.785Z,1019.49
2017-04-09T02:56:18.784Z,1019.48
2017-04-09T02:57:29.784Z,1019.52
2017-04-09T02:58:40.840Z,1019.47
2017-04-09T02:59:51.838Z,1019.47
2017-04-09T03:01:02.832Z,1019.44
2017-04-09T03:02:14.231Z,1019.49
2017-04-09T03:03:25.435Z,1019.44
2017-04-09T03:04:36.913Z,1019.49
2017-04-09T03:05:48.151Z,1019.45
2017-04-09T03:06:59.362Z,1019.48
2017-04-09T03:08:10.345Z,1019.46
2017-04-09T03:09:21.334Z,1019.5
2017-04-09T03:10:32.401Z,1019.47
2017-04-09T03:11:43.405Z,1019.44
2017-04-09T03:12:54.589Z,1019.44
2017-04-09T03:14:05.586Z,1019.44
2017-04-09T03:15:16.628Z,1019.4
2017-04-09T03:16:27.669Z,1019.38
2017-04-09T03:17:38.658Z,1019.41
2017-04-09T03:18:49.670Z,1019.42
2017-04-09T03:20:00.678Z,1019.39
2017-04-09T03:21:11.687Z,1019.38
2017-04-09T03:22:22.943Z,1019.41
2017-04-09T03:23:33.939Z,1019.41
2017-04-09T03:24:44.941Z,1019.43
2017-04-09T03:25:55.936Z,1019.4
2017-04-09T03:27:06.933Z,1019.42
2017-04-09T03:28:18.187Z,1019.39
2017-04-09T03:29:29.188Z,1019.4
2017-04-09T03:30:40.175Z,1019.39
2017-04-09T03:31:51.177Z,1019.39
2017-04-09T03:33:02.371Z,1019.46
2017-04-09T03:34:13.604Z,1019.38
2017-04-09T03:35:24.601Z,1019.38
2017-04-09T03:36:35.598Z,1019.4
2017-04-09T03:37:46.791Z,1019.33
2017-04-09T03:38:57.798Z,1019.41
2017-04-09T03:40:09.434Z,1019.4
2017-04-09T03:41:20.433Z,1019.46
2017-04-09T03:42:31.433Z,1019.44
2017-04-09T03:43:42.462Z,1019.45
2017-04-09T03:44:53.463Z,1019.46
2017-04-09T03:46:04.717Z,1019.45
2017-04-09T03:47:15.925Z,1019.39
2017-04-09T03:48:26.925Z,1019.43
2017-04-09T03:49:37.921Z,1019.44
2017-04-09T03:50:48.922Z,1019.45
2017-04-09T03:51:59.972Z,1019.43
2017-04-09T03:53:10.972Z,1019.41
2017-04-09T03:54:22.165Z,1019.43
2017-04-09T03:55:33.373Z,1019.43
2017-04-09T03:56:44.552Z,1019.46
2017-04-09T03:57:55.802Z,1019.46
2017-04-09T03:59:06.793Z,1019.44
2017-04-09T04:00:17.776Z,1019.47
2017-04-09T04:01:28.770Z,1019.46
2017-04-09T04:02:39.968Z,1019.47
2017-04-09T04:03:51.223Z,1019.48
2017-04-09T04:05:02.257Z,1019.49
2017-04-09T04:06:13.260Z,1019.43
2017-04-09T04:07:24.265Z,1019.45
2017-04-09T04:08:35.264Z,1019.44
2017-04-09T04:09:46.326Z,1019.47
2017-04-09T04:10:57.313Z,1019.5
2017-04-09T04:12:08.320Z,1019.47
2017-04-09T04:13:19.331Z,1019.43
2017-04-09T04:14:30.327Z,1019.47
2017-04-09T04:15:41.534Z,1019.47
2017-04-09T04:16:52.534Z,1019.47
2017-04-09T04:18:03.520Z,1019.47
2017-04-09T04:19:14.716Z,1019.53
2017-04-09T04:20:25.761Z,1019.54
2017-04-09T04:21:36.761Z,1019.53
2017-04-09T04:22:47.753Z,1019.57
2017-04-09T04:23:58.751Z,1019.53
2017-04-09T04:25:09.952Z,1019.53
2017-04-09T04:26:20.993Z,1019.56
2017-04-09T04:27:32.186Z,1019.53
2017-04-09T04:28:43.385Z,1019.53
2017-04-09T04:29:54.393Z,1019.55
2017-04-09T04:31:05.385Z,1019.53
2017-04-09T04:32:16.442Z,1019.55
2017-04-09T04:33:27.435Z,1019.56
2017-04-09T04:34:38.428Z,1019.52
2017-04-09T04:35:49.420Z,1019.53
2017-04-09T04:37:00.405Z,1019.53
2017-04-09T04:38:11.447Z,1019.54
2017-04-09T04:39:22.444Z,1019.54
2017-04-09T04:40:33.645Z,1019.55
2017-04-09T04:41:44.639Z,1019.53
2017-04-09T04:42:55.629Z,1019.56
2017-04-09T04:44:06.684Z,1019.59
2017-04-09T04:45:17.679Z,1019.59
2017-04-09T04:46:28.679Z,1019.61
2017-04-09T04:47:39.870Z,1019.59
2017-04-09T04:48:50.862Z,1019.56
2017-04-09T04:50:01.911Z,1019.59
2017-04-09T04:51:12.920Z,1019.62
2017-04-09T04:52:23.919Z,1019.59
2017-04-09T04:53:34.912Z,1019.57
2017-04-09T04:54:45.927Z,1019.62
2017-04-09T04:55:57.181Z,1019.62
2017-04-09T04:57:08.180Z,1019.61
2017-04-09T04:58:19.180Z,1019.67
2017-04-09T04:59:30.181Z,1019.69
2017-04-09T05:00:41.172Z,1019.68
2017-04-09T05:01:52.213Z,1019.71
2017-04-09T05:03:03.210Z,1019.75
2017-04-09T05:04:14.412Z,1019.74
2017-04-09T05:05:25.407Z,1019.73
2017-04-09T05:06:36.412Z,1019.74
2017-04-09T05:07:47.655Z,1019.79
2017-04-09T05:08:58.659Z,1019.79
2017-04-09T05:10:09.640Z,1019.79
2017-04-09T05:11:20.630Z,1019.84
2017-04-09T05:12:31.830Z,1019.78
2017-04-09T05:13:42.881Z,1019.8
2017-04-09T05:14:53.892Z,1019.78
2017-04-09T05:16:05.095Z,1019.76
2017-04-09T05:17:16.299Z,1019.8
2017-04-09T05:18:27.505Z,1019.81
2017-04-09T05:19:38.754Z,1019.79
2017-04-09T05:20:49.786Z,1019.83
2017-04-09T05:22:00.779Z,1019.82
2017-04-09T05:23:11.784Z,1019.81
2017-04-09T05:24:22.784Z,1019.82
2017-04-09T05:25:33.827Z,1019.79
2017-04-09T05:26:44.823Z,1019.8
2017-04-09T05:27:55.810Z,1019.83
2017-04-09T05:29:06.998Z,1019.84
2017-04-09T05:30:17.989Z,1019.8
2017-04-09T05:31:29.043Z,1019.84
2017-04-09T05:32:40.074Z,1019.83
2017-04-09T05:33:51.061Z,1019.85
2017-04-09T05:35:02.070Z,1019.85
2017-04-09T05:36:13.087Z,1019.89
2017-04-09T05:37:24.184Z,1019.96
2017-04-09T05:38:35.172Z,1019.9
2017-04-09T05:39:46.175Z,1019.92
2017-04-09T05:40:57.366Z,1019.87
2017-04-09T05:42:08.557Z,1019.9
2017-04-09T05:43:19.637Z,1019.87
2017-04-09T05:44:30.838Z,1019.96
2017-04-09T05:45:41.823Z,1019.97
2017-04-09T05:46:52.823Z,1019.94
2017-04-09T05:48:03.837Z,1019.93
2017-04-09T05:49:14.887Z,1019.92
2017-04-09T05:50:25.900Z,1019.96
2017-04-09T05:51:36.906Z,1019.96
2017-04-09T05:52:47.902Z,1019.98
2017-04-09T05:53:58.891Z,1020.02
2017-04-09T05:55:09.943Z,1019.97
2017-04-09T05:56:21.151Z,1019.97
2017-04-09T05:57:32.154Z,1020.01
2017-04-09T05:58:43.157Z,1019.98
2017-04-09T05:59:54.158Z,1020.02
2017-04-09T06:01:05.208Z,1020
2017-04-09T06:02:16.193Z,1020.01
2017-04-09T06:03:27.197Z,1020
2017-04-09T06:04:38.240Z,1020.05
2017-04-09T06:05:49.247Z,1020.04
2017-04-09T06:07:00.295Z,1020.06
2017-04-09T06:08:11.315Z,1020.04
2017-04-09T06:09:22.321Z,1020
2017-04-09T06:10:33.335Z,1020.03
2017-04-09T06:11:44.536Z,1020.07
2017-04-09T06:12:55.783Z,1020.11
2017-04-09T06:14:06.793Z,1020.1
2017-04-09T06:15:17.795Z,1020.12
2017-04-09T06:16:28.797Z,1020.13
2017-04-09T06:17:40.010Z,1020.08
2017-04-09T06:18:51.251Z,1020.09
2017-04-09T06:20:02.474Z,1020.11
2017-04-09T06:21:13.467Z,1020.18
2017-04-09T06:22:24.472Z,1020.25
2017-04-09T06:23:35.674Z,1020.23
2017-04-09T06:24:46.943Z,1020.27
2017-04-09T06:25:57.947Z,1020.26
2017-04-09T06:27:08.959Z,1020.33
2017-04-09T06:28:19.970Z,1020.38
2017-04-09T06:29:30.983Z,1020.45
2017-04-09T06:30:41.999Z,1020.55
2017-04-09T06:31:53.200Z,1020.45
2017-04-09T06:33:04.405Z,1020.38
2017-04-09T06:34:15.418Z,1020.53
2017-04-09T06:35:26.476Z,1020.71
2017-04-09T06:36:37.489Z,1020.93
2017-04-09T06:37:48.484Z,1021.22
2017-04-09T06:38:59.478Z,1021.49
2017-04-09T06:40:10.481Z,1021.68
2017-04-09T06:41:21.936Z,1021.62
2017-04-09T06:42:32.941Z,1021.65
2017-04-09T06:43:43.941Z,1021.69
2017-04-09T06:44:55.153Z,1021.81
2017-04-09T06:46:06.155Z,1021.82
2017-04-09T06:47:17.225Z,1021.74
2017-04-09T06:48:28.449Z,1021.7
2017-04-09T06:49:39.457Z,1021.68
2017-04-09T06:50:50.466Z,1021.75
2017-04-09T06:52:01.474Z,1021.73
2017-04-09T06:53:12.740Z,1021.81
2017-04-09T06:54:23.746Z,1021.83
2017-04-09T06:55:34.964Z,1021.82
2017-04-09T06:56:45.972Z,1021.88
2017-04-09T06:57:56.978Z,1021.92
2017-04-09T06:59:08.032Z,1021.91
2017-04-09T07:00:19.073Z,1021.94
2017-04-09T07:01:30.075Z,1021.93
2017-04-09T07:02:41.288Z,1022
2017-04-09T07:03:52.504Z,1021.97
2017-04-09T07:05:03.571Z,1021.97
2017-04-09T07:06:14.601Z,1022.02
2017-04-09T07:07:25.826Z,1021.9
2017-04-09T07:08:37.041Z,1021.87
2017-04-09T07:09:48.056Z,1021.95
2017-04-09T07:10:59.333Z,1021.96
2017-04-09T07:12:10.545Z,1021.97
2017-04-09T07:13:21.559Z,1021.88
2017-04-09T07:14:32.587Z,1021.83
2017-04-09T07:15:43.611Z,1021.84
2017-04-09T07:16:54.674Z,1021.82
2017-04-09T07:18:05.696Z,1021.8
2017-04-09T07:19:16.710Z,1021.88
2017-04-09T07:20:27.728Z,1021.95
2017-04-09T07:21:38.754Z,1021.96
2017-04-09T07:22:49.826Z,1021.94
2017-04-09T07:24:00.842Z,1022.1
2017-04-09T07:25:12.071Z,1022.18
2017-04-09T07:26:23.086Z,1022.29
2017-04-09T07:27:34.106Z,1022.42
2017-04-09T07:28:45.184Z,1022.67
2017-04-09T07:29:56.411Z,1022.91
2017-04-09T07:31:07.467Z,1023.28
2017-04-09T07:32:18.704Z,1023.61
2017-04-09T07:33:29.721Z,1023.98
2017-04-09T07:34:40.983Z,1024.27
2017-04-09T07:35:52.194Z,1024.62
2017-04-09T07:37:03.222Z,1025.25
2017-04-09T07:38:14.244Z,1025.63
2017-04-09T07:39:25.266Z,1025.95
2017-04-09T07:40:36.348Z,1026.53
2017-04-09T07:41:47.365Z,1026.97
2017-04-09T07:42:58.395Z,1027.27
2017-04-09T07:44:09.411Z,1027.9
2017-04-09T07:45:20.433Z,1028.46
2017-04-09T07:46:31.504Z,1028.99
2017-04-09T07:47:42.522Z,1029.05
2017-04-09T07:48:53.542Z,1029.68
2017-04-09T07:50:04.611Z,1029.86
2017-04-09T07:51:15.630Z,1028.45
2017-04-09T07:52:26.710Z,1023.49
2017-04-09T07:53:37.728Z,1021.09
2017-04-09T07:54:48.741Z,1020.8
2017-04-09T07:55:59.768Z,1020.77
2017-04-09T07:57:11.001Z,1020.76
2017-04-09T07:58:22.276Z,1020.69
2017-04-09T07:59:33.494Z,1020.69
2017-04-09T08:00:44.514Z,1020.72
2017-04-09T08:01:55.560Z,1020.68
2017-04-09T08:03:06.806Z,1020.67
2017-04-09T08:04:18.087Z,1020.64
2017-04-09T08:05:29.116Z,1020.61
2017-04-09T08:06:40.139Z,1020.64
2017-04-09T08:07:51.371Z,1020.63
2017-04-09T08:09:02.399Z,1020.64
2017-04-09T08:10:13.677Z,1020.64
2017-04-09T08:11:24.704Z,1020.62
2017-04-09T08:12:35.768Z,1020.69
2017-04-09T08:13:46.795Z,1020.68
2017-04-09T08:14:58.023Z,1020.67
2017-04-09T08:16:09.097Z,1020.69
2017-04-09T08:17:20.317Z,1020.7
2017-04-09T08:18:31.538Z,1020.7
2017-04-09T08:19:42.571Z,1020.66
2017-04-09T08:20:53.800Z,1020.69
2017-04-09T08:22:04.878Z,1020.73
2017-04-09T08:23:15.904Z,1020.74
2017-04-09T08:24:26.924Z,1020.77
2017-04-09T08:25:37.960Z,1020.72
2017-04-09T08:26:48.982Z,1020.74
2017-04-09T08:28:00.257Z,1020.75
2017-04-09T08:29:11.484Z,1020.72
2017-04-09T08:30:22.917Z,1020.72
2017-04-09T08:31:33.945Z,1020.73
2017-04-09T08:32:44.968Z,1020.72
2017-04-09T08:33:56.441Z,1020.71
2017-04-09T08:35:07.672Z,1020.75
2017-04-09T08:36:18.894Z,1020.74
2017-04-09T08:37:29.917Z,1020.75
2017-04-09T08:38:40.944Z,1020.74
2017-04-09T08:39:52.015Z,1020.79
2017-04-09T08:41:03.036Z,1020.75
2017-04-09T08:42:14.303Z,1020.73
2017-04-09T08:43:25.331Z,1020.72
2017-04-09T08:44:36.349Z,1020.73
2017-04-09T08:45:47.581Z,1020.77
2017-04-09T08:46:58.608Z,1020.71
2017-04-09T08:48:09.634Z,1020.72
2017-04-09T08:49:20.662Z,1020.73
2017-04-09T08:50:31.744Z,1020.67
2017-04-09T08:51:42.969Z,1020.7
2017-04-09T08:52:54.002Z,1020.73
2017-04-09T08:54:05.240Z,1020.7
2017-04-09T08:55:16.261Z,1020.68
2017-04-09T08:56:27.335Z,1020.68
2017-04-09T08:57:38.358Z,1020.68
2017-04-09T08:58:49.384Z,1020.7
2017-04-09T09:00:00.417Z,1020.7
2017-04-09T09:01:11.443Z,1020.71
2017-04-09T09:02:22.513Z,1020.73
2017-04-09T09:03:33.539Z,1020.72
2017-04-09T09:04:44.560Z,1020.77
2017-04-09T09:05:55.584Z,1020.77
2017-04-09T09:07:06.650Z,1020.77
2017-04-09T09:08:17.723Z,1020.78
2017-04-09T09:09:28.746Z,1020.78
2017-04-09T09:10:39.779Z,1020.78
2017-04-09T09:11:51.003Z,1020.79
2017-04-09T09:13:02.024Z,1020.81
2017-04-09T09:14:13.301Z,1020.8
2017-04-09T09:15:24.330Z,1020.86
2017-04-09T09:16:35.388Z,1020.81
2017-04-09T09:17:46.410Z,1020.83
2017-04-09T09:18:57.444Z,1020.83
2017-04-09T09:20:08.517Z,1020.83
2017-04-09T09:21:19.755Z,1020.84
2017-04-09T09:22:30.785Z,1020.83
2017-04-09T09:23:41.810Z,1020.91
2017-04-09T09:24:52.840Z,1020.88
2017-04-09T09:26:04.130Z,1020.89
2017-04-09T09:27:15.364Z,1020.91
2017-04-09T09:28:26.397Z,1020.94
2017-04-09T09:29:37.425Z,1021
2017-04-09T09:30:48.453Z,1021.14
2017-04-09T09:31:59.930Z,1021.35
2017-04-09T09:33:10.967Z,1021.91
2017-04-09T09:34:22.195Z,1023.21
2017-04-09T09:35:33.228Z,1026.18
2017-04-09T09:36:44.242Z,1028.88
2017-04-09T09:37:55.519Z,1030.42
2017-04-09T09:39:06.550Z,1031.78
2017-04-09T09:40:17.593Z,1030.91
2017-04-09T09:41:28.628Z,1030.39
2017-04-09T09:42:39.663Z,1029.81
2017-04-09T09:43:50.944Z,1028.87
2017-04-09T09:45:01.965Z,1028.81
2017-04-09T09:46:12.999Z,1028.76
2017-04-09T09:47:24.028Z,1028.44
2017-04-09T09:48:35.243Z,1027.73
2017-04-09T09:49:46.321Z,1027.81
2017-04-09T09:50:57.547Z,1027.29
2017-04-09T09:52:08.579Z,1026.72
2017-04-09T09:53:19.803Z,1026.5
2017-04-09T09:54:30.842Z,1025.99
2017-04-09T09:55:42.135Z,1025.96
2017-04-09T09:56:53.165Z,1025.81
2017-04-09T09:58:04.202Z,1025.2
2017-04-09T09:59:15.247Z,1024.89
2017-04-09T10:00:26.315Z,1024.4
2017-04-09T10:01:37.796Z,1023.46
2017-04-09T10:02:48.821Z,1023.01
2017-04-09T10:03:59.847Z,1022.57
2017-04-09T10:05:11.066Z,1022.27
2017-04-09T10:06:22.101Z,1021.92
2017-04-09T10:07:33.390Z,1021.64
2017-04-09T10:08:44.420Z,1021.75
2017-04-09T10:09:55.447Z,1021.36
2017-04-09T10:11:06.883Z,1020.9
2017-04-09T10:12:17.914Z,1020.82
2017-04-09T10:13:29.187Z,1020.9
2017-04-09T10:14:40.425Z,1020.87
2017-04-09T10:15:51.458Z,1020.8
2017-04-09T10:17:02.683Z,1020.74
2017-04-09T10:18:13.907Z,1020.68
2017-04-09T10:19:24.980Z,1020.67
2017-04-09T10:20:36.018Z,1020.64
2017-04-09T10:21:47.042Z,1020.69
2017-04-09T10:22:58.078Z,1020.66
2017-04-09T10:24:09.146Z,1020.63
2017-04-09T10:25:20.425Z,1020.59
2017-04-09T10:26:31.912Z,1020.61
2017-04-09T10:27:42.939Z,1020.61
2017-04-09T10:28:53.958Z,1020.52
2017-04-09T10:30:05.177Z,1020.54
2017-04-09T10:31:16.465Z,1020.56
2017-04-09T10:32:27.490Z,1020.66
2017-04-09T10:33:38.517Z,1020.75
2017-04-09T10:34:49.535Z,1020.82
2017-04-09T10:36:00.564Z,1020.72
2017-04-09T10:37:11.641Z,1020.51
2017-04-09T10:38:22.672Z,1020.39
2017-04-09T10:39:33.690Z,1020.31
2017-04-09T10:40:44.925Z,1020.26
2017-04-09T10:41:55.966Z,1020.26
2017-04-09T10:43:07.242Z,1020.24
2017-04-09T10:44:18.278Z,1020.2
2017-04-09T10:45:29.352Z,1020.13
2017-04-09T10:46:40.377Z,1020.17
2017-04-09T10:47:51.611Z,1020.12
2017-04-09T10:49:02.697Z,1020.15
2017-04-09T10:50:13.736Z,1020.14
2017-04-09T10:51:24.771Z,1020.11
2017-04-09T10:52:35.803Z,1020.08
2017-04-09T10:53:46.840Z,1020.09
2017-04-09T10:54:58.128Z,1020.05
2017-04-09T10:56:09.183Z,1020.04
2017-04-09T10:57:20.209Z,1020.03
2017-04-09T10:58:31.246Z,1020.01
2017-04-09T10:59:42.273Z,1019.99
2017-04-09T11:00:53.546Z,1020
2017-04-09T11:02:04.572Z,1019.98
2017-04-09T11:03:15.616Z,1019.98
2017-04-09T11:04:26.640Z,1019.99
2017-04-09T11:05:37.922Z,1019.96
2017-04-09T11:06:48.955Z,1019.96
2017-04-09T11:07:59.972Z,1019.93
2017-04-09T11:09:10.995Z,1019.9
2017-04-09T11:10:22.027Z,1019.88
2017-04-09T11:11:33.102Z,1019.88
2017-04-09T11:12:44.325Z,1019.82
2017-04-09T11:13:55.561Z,1019.82
2017-04-09T11:15:06.581Z,1019.82
2017-04-09T11:16:17.814Z,1019.83
2017-04-09T11:17:28.893Z,1019.8
2017-04-09T11:18:39.936Z,1019.81
2017-04-09T11:19:50.962Z,1019.79
2017-04-09T11:21:01.984Z,1019.78
2017-04-09T11:22:13.020Z,1019.8
2017-04-09T11:23:24.093Z,1019.76
2017-04-09T11:24:35.122Z,1019.74
2017-04-09T11:25:46.145Z,1019.74
2017-04-09T11:26:57.173Z,1019.7
2017-04-09T11:28:08.209Z,1019.66
2017-04-09T11:29:19.491Z,1019.68
2017-04-09T11:30:30.521Z,1019.65
2017-04-09T11:31:41.741Z,1019.7
2017-04-09T11:32:52.968Z,1019.66
2017-04-09T11:34:04.195Z,1019.71
2017-04-09T11:35:15.686Z,1019.68
2017-04-09T11:36:26.723Z,1019.69
2017-04-09T11:37:37.750Z,1019.63
2017-04-09T11:38:48.784Z,1019.64
2017-04-09T11:40:00.048Z,1019.63
2017-04-09T11:41:11.159Z,1019.59
2017-04-09T11:42:22.378Z,1019.6
2017-04-09T11:43:33.609Z,1019.57
2017-04-09T11:44:44.623Z,1019.55
2017-04-09T11:45:55.689Z,1019.56
2017-04-09T11:47:06.766Z,1019.59
2017-04-09T11:48:17.795Z,1019.57
2017-04-09T11:49:28.824Z,1019.53
2017-04-09T11:50:39.853Z,1019.53
2017-04-09T11:51:50.885Z,1019.53
2017-04-09T11:53:01.972Z,1019.45
2017-04-09T11:54:12.995Z,1019.48
2017-04-09T11:55:24.040Z,1019.4
2017-04-09T11:56:35.114Z,1019.43
2017-04-09T11:57:46.338Z,1019.46
2017-04-09T11:58:57.649Z,1019.44
2017-04-09T12:00:08.672Z,1019.42
2017-04-09T12:01:19.686Z,1019.39
2017-04-09T12:02:30.709Z,1019.38
2017-04-09T12:03:41.740Z,1019.35
2017-04-09T12:04:52.830Z,1019.36
2017-04-09T12:06:03.855Z,1019.36
2017-04-09T12:07:14.882Z,1019.3
2017-04-09T12:08:25.915Z,1019.31
2017-04-09T12:09:36.928Z,1019.24
2017-04-09T12:10:48.606Z,1019.22
2017-04-09T12:11:59.630Z,1019.23
2017-04-09T12:13:10.650Z,1019.2
2017-04-09T12:14:21.699Z,1019.18
2017-04-09T12:15:32.725Z,1019.09
2017-04-09T12:16:44.005Z,1019.11
2017-04-09T12:17:55.034Z,1019.07
2017-04-09T12:19:06.060Z,1019.05
2017-04-09T12:20:17.285Z,1019.05
2017-04-09T12:21:28.311Z,1018.96
2017-04-09T12:22:39.389Z,1019.05
2017-04-09T12:23:50.435Z,1019.05
2017-04-09T12:25:01.656Z,1019.04
2017-04-09T12:26:12.672Z,1018.97
2017-04-09T12:27:23.700Z,1019
2017-04-09T12:28:34.978Z,1019
2017-04-09T12:29:46.000Z,1018.93
2017-04-09T12:30:57.022Z,1018.93
2017-04-09T12:32:08.027Z,1018.92
2017-04-09T12:33:19.260Z,1018.89
2017-04-09T12:34:30.344Z,1018.87
2017-04-09T12:35:41.371Z,1018.89
2017-04-09T12:36:52.392Z,1018.87
2017-04-09T12:38:03.410Z,1018.86
2017-04-09T12:39:14.420Z,1018.81
2017-04-09T12:40:25.684Z,1018.82
2017-04-09T12:41:36.705Z,1018.8
2017-04-09T12:42:47.766Z,1018.82
2017-04-09T12:43:58.790Z,1018.8
2017-04-09T12:45:09.805Z,1018.82
2017-04-09T12:46:20.885Z,1018.78
2017-04-09T12:47:31.914Z,1018.76
2017-04-09T12:48:43.194Z,1018.74
2017-04-09T12:49:54.222Z,1018.73
2017-04-09T12:51:05.252Z,1018.72
2017-04-09T12:52:16.527Z,1018.75
2017-04-09T12:53:27.549Z,1018.73
2017-04-09T12:54:38.566Z,1018.69
2017-04-09T12:55:49.583Z,1018.71
2017-04-09T12:57:00.593Z,1018.64
2017-04-09T12:58:11.620Z,1018.68
2017-04-09T12:59:22.645Z,1018.66
2017-04-09T13:00:34.075Z,1018.68
2017-04-09T13:01:45.102Z,1018.65
2017-04-09T13:02:56.115Z,1018.62
2017-04-09T13:04:07.398Z,1018.6
2017-04-09T13:05:18.617Z,1018.64
2017-04-09T13:06:29.632Z,1018.61
2017-04-09T13:07:40.852Z,1018.54
2017-04-09T13:08:52.122Z,1018.51
2017-04-09T13:10:03.158Z,1018.52
2017-04-09T13:11:14.378Z,1018.5
2017-04-09T13:12:25.396Z,1018.45
2017-04-09T13:13:36.408Z,1018.47
2017-04-09T13:14:47.483Z,1018.49
2017-04-09T13:15:58.515Z,1018.46
2017-04-09T13:17:09.534Z,1018.47
2017-04-09T13:18:20.754Z,1018.46
2017-04-09T13:19:31.771Z,1018.45
2017-04-09T13:20:43.039Z,1018.4
2017-04-09T13:21:54.054Z,1018.39
2017-04-09T13:23:05.074Z,1018.38
2017-04-09T13:24:16.086Z,1018.36
2017-04-09T13:25:27.103Z,1018.38
2017-04-09T13:26:38.157Z,1018.33
2017-04-09T13:27:49.177Z,1018.32
2017-04-09T13:29:00.392Z,1018.33
2017-04-09T13:30:11.627Z,1018.34
2017-04-09T13:31:22.646Z,1018.33
2017-04-09T13:32:33.722Z,1018.3
2017-04-09T13:33:44.741Z,1018.27
2017-04-09T13:34:55.752Z,1018.27
2017-04-09T13:36:06.767Z,1018.29
2017-04-09T13:37:17.789Z,1018.24
2017-04-09T13:38:28.840Z,1018.22
2017-04-09T13:39:40.067Z,1018.24
2017-04-09T13:40:51.086Z,1018.19
2017-04-09T13:42:02.308Z,1018.16
2017-04-09T13:43:13.316Z,1018.17
2017-04-09T13:44:24.399Z,1018.15
2017-04-09T13:45:35.425Z,1018.12
2017-04-09T13:46:46.457Z,1018.11
2017-04-09T13:47:57.482Z,1018.11
2017-04-09T13:49:08.690Z,1018.1
2017-04-09T13:50:19.760Z,1018.08
2017-04-09T13:51:30.778Z,1018.04
2017-04-09T13:52:41.809Z,1018.03
2017-04-09T13:53:52.831Z,1018
2017-04-09T13:55:03.851Z,1017.99
2017-04-09T13:56:14.925Z,1017.97
2017-04-09T13:57:25.930Z,1017.96
2017-04-09T13:58:36.955Z,1017.92
2017-04-09T13:59:48.422Z,1017.93
2017-04-09T14:00:59.434Z,1017.96
2017-04-09T14:02:10.705Z,1017.87
2017-04-09T14:03:21.724Z,1017.85
2017-04-09T14:04:32.742Z,1017.85
2017-04-09T14:05:43.974Z,1017.81
2017-04-09T14:06:55.204Z,1017.78
2017-04-09T14:08:06.470Z,1017.81
2017-04-09T14:09:17.492Z,1017.76
2017-04-09T14:10:28.503Z,1017.73
2017-04-09T14:11:39.508Z,1017.76
2017-04-09T14:12:50.530Z,1017.7
2017-04-09T14:14:01.634Z,1017.73
2017-04-09T14:15:13.063Z,1017.7
2017-04-09T14:16:24.081Z,1017.69
2017-04-09T14:17:35.304Z,1017.7
2017-04-09T14:18:46.327Z,1017.67
2017-04-09T14:19:57.402Z,1017.64
2017-04-09T14:21:08.433Z,1017.64
2017-04-09T14:22:19.448Z,1017.63
2017-04-09T14:23:30.461Z,1017.59